createdAt,value
2023-04-05T00:00:28.114Z,1.66
2023-04-05T00:03:00.085Z,1.55
2023-04-05T00:05:34.168Z,1.63
2023-04-05T00:08:04.443Z,1.49
2023-04-05T00:10:32.017Z,1.53
2023-04-05T00:12:59.036Z,1.55
2023-04-05T00:15:27.854Z,1.57
2023-04-05T00:17:55.837Z,1.61
2023-04-05T00:20:22.737Z,1.65
2023-04-05T00:22:50.903Z,1.60
2023-04-05T00:25:18.774Z,1.60
2023-04-05T00:27:46.007Z,1.55
2023-04-05T00:30:13.267Z,1.49
2023-04-05T00:32:40.173Z,1.53
2023-04-05T00:35:07.364Z,1.62
2023-04-05T00:37:34.367Z,1.60
2023-04-05T00:40:01.186Z,1.59
2023-04-05T00:42:28.165Z,1.60
2023-04-05T00:44:55.032Z,1.66
2023-04-05T00:47:22.030Z,1.65
2023-04-05T00:49:49.837Z,1.72
2023-04-05T00:52:19.657Z,1.81
2023-04-05T00:54:46.566Z,1.81
2023-04-05T00:57:13.973Z,1.69
2023-04-05T00:59:40.924Z,1.53
2023-04-05T01:02:39.611Z,1.46
2023-04-05T01:05:30.069Z,1.42
2023-04-05T01:08:29.853Z,1.34
2023-04-05T01:11:03.559Z,1.26
2023-04-05T01:13:30.747Z,1.29
2023-04-05T01:15:57.830Z,1.23
2023-04-05T01:18:26.898Z,1.25
2023-04-05T01:21:37.893Z,1.31
2023-04-05T01:24:25.117Z,1.43
2023-04-05T01:27:19.637Z,1.45
2023-04-05T01:30:10.682Z,1.36
2023-04-05T01:33:16.290Z,1.25
2023-04-05T01:35:56.263Z,1.33
2023-04-05T01:38:27.720Z,1.34
2023-04-05T01:40:54.989Z,1.25
2023-04-05T01:43:21.812Z,1.32
2023-04-05T01:45:48.791Z,1.44
2023-04-05T01:48:16.026Z,1.37
2023-04-05T01:50:43.534Z,1.28
2023-04-05T01:53:10.843Z,1.38
2023-04-05T01:55:37.804Z,1.26
2023-04-05T01:58:04.768Z,1.13
2023-04-05T02:00:31.727Z,1.08
2023-04-05T02:02:58.756Z,1.13
2023-04-05T02:05:25.615Z,1.04
2023-04-05T02:07:52.438Z,1.11
2023-04-05T02:10:20.425Z,1.06
2023-04-05T02:12:47.249Z,1.15
2023-04-05T02:15:14.206Z,1.22
2023-04-05T02:17:45.957Z,1.19
2023-04-05T02:20:14.596Z,1.04
2023-04-05T02:22:45.251Z,0.89
2023-04-05T02:25:13.170Z,0.90
2023-04-05T02:27:40.768Z,0.96
2023-04-05T02:30:08.592Z,1.10
2023-04-05T02:32:35.453Z,1.08
2023-04-05T02:35:02.679Z,1.01
2023-04-05T02:37:29.564Z,1.03
2023-04-05T02:39:56.589Z,1.07
2023-04-05T02:42:23.451Z,1.10
2023-04-05T02:44:50.324Z,1.08
2023-04-05T02:47:21.289Z,1.13
2023-04-05T02:49:51.316Z,1.09
2023-04-05T02:52:18.148Z,1.01
2023-04-05T02:54:46.652Z,0.89
2023-04-05T02:57:14.182Z,0.73
2023-04-05T02:59:40.987Z,0.68
2023-04-05T03:02:10.698Z,0.69
2023-04-05T03:04:38.744Z,0.63
2023-04-05T03:07:05.677Z,0.65
2023-04-05T03:09:38.580Z,0.83
2023-04-05T03:12:05.683Z,0.83
2023-04-05T03:14:33.201Z,0.75
2023-04-05T03:17:01.179Z,0.74
2023-04-05T03:19:27.989Z,0.99
2023-04-05T03:21:54.761Z,1.08
2023-04-05T03:24:21.925Z,1.14
2023-04-05T03:26:49.223Z,1.20
2023-04-05T03:29:17.453Z,1.16
2023-04-05T03:31:45.672Z,1.08
2023-04-05T03:34:12.550Z,1.12
2023-04-05T03:36:42.004Z,1.11
2023-04-05T03:39:10.537Z,1.15
2023-04-05T03:41:38.729Z,1.12
2023-04-05T03:44:07.074Z,1.11
2023-04-05T03:46:34.445Z,1.12
2023-04-05T03:49:02.313Z,1.12
2023-04-05T03:51:29.418Z,1.16
2023-04-05T03:53:56.357Z,1.21
2023-04-05T03:56:23.176Z,1.21
2023-04-05T03:58:50.079Z,1.09
2023-04-05T04:01:18.392Z,1.06
2023-04-05T04:03:45.459Z,1.02
2023-04-05T04:06:12.471Z,0.82
2023-04-05T04:08:39.441Z,0.59
2023-04-05T04:11:07.191Z,0.59
2023-04-05T04:13:34.045Z,0.75
2023-04-05T04:16:00.894Z,0.72
2023-04-05T04:18:27.694Z,0.64
2023-04-05T04:20:54.587Z,0.67
2023-04-05T04:23:21.327Z,0.74
2023-04-05T04:25:54.472Z,0.59
2023-04-05T04:28:21.598Z,0.56
2023-04-05T04:30:48.453Z,0.71
2023-04-05T04:33:17.447Z,0.71
2023-04-05T04:35:47.112Z,0.69
2023-04-05T04:38:19.549Z,0.51
2023-04-05T04:40:47.363Z,0.56
2023-04-05T04:43:18.845Z,0.65
2023-04-05T04:45:51.894Z,0.65
2023-04-05T04:48:18.815Z,0.55
2023-04-05T04:50:48.395Z,0.64
2023-04-05T04:53:18.014Z,0.67
2023-04-05T04:55:45.721Z,0.72
2023-04-05T04:58:13.774Z,0.73
2023-04-05T05:00:44.530Z,0.57
2023-04-05T05:03:12.042Z,0.53
2023-04-05T05:05:44.050Z,0.28
2023-04-05T05:08:11.137Z,0.23
2023-04-05T05:10:38.045Z,0.27
2023-04-05T05:13:05.610Z,0.21
2023-04-05T05:15:32.527Z,0.23
2023-04-05T05:17:59.508Z,0.32
2023-04-05T05:20:28.453Z,0.27
2023-04-05T05:22:55.683Z,0.14
2023-04-05T05:25:22.736Z,0.09
2023-04-05T05:27:53.345Z,0.21
2023-04-05T05:30:20.960Z,0.38
2023-04-05T05:32:48.488Z,0.33
2023-04-05T05:35:15.613Z,0.31
2023-04-05T05:37:42.419Z,0.45
2023-04-05T05:40:13.535Z,0.60
2023-04-05T05:42:40.296Z,0.63
2023-04-05T05:45:08.221Z,0.65
2023-04-05T05:47:35.488Z,0.54
2023-04-05T05:50:03.499Z,0.59
2023-04-05T05:52:30.391Z,0.66
2023-04-05T05:54:57.454Z,0.72
2023-04-05T05:57:24.462Z,0.67
2023-04-05T05:59:51.449Z,0.61
2023-04-05T06:02:19.409Z,0.56
2023-04-05T06:04:46.281Z,0.56
2023-04-05T06:07:13.676Z,0.55
2023-04-05T06:09:40.488Z,0.61
2023-04-05T06:12:07.439Z,0.67
2023-04-05T06:14:34.255Z,0.63
2023-04-05T06:17:00.986Z,0.62
2023-04-05T06:19:27.938Z,0.65
2023-04-05T06:21:55.071Z,0.84
2023-04-05T06:24:21.961Z,0.86
2023-04-05T06:26:50.842Z,0.90
2023-04-05T06:29:17.705Z,1.01
2023-04-05T06:31:46.555Z,1.08
2023-04-05T06:34:13.508Z,1.17
2023-04-05T06:36:40.445Z,1.27
2023-04-05T06:39:07.940Z,1.37
2023-04-05T06:41:35.028Z,1.43
2023-04-05T06:44:05.078Z,1.47
2023-04-05T06:46:32.415Z,1.59
2023-04-05T06:49:02.279Z,1.70
2023-04-05T06:51:30.926Z,1.77
2023-04-05T06:53:58.156Z,1.80
2023-04-05T06:56:25.088Z,1.86
2023-04-05T06:58:51.980Z,1.97
2023-04-05T07:01:18.958Z,2.03
2023-04-05T07:03:45.896Z,2.07
2023-04-05T07:06:12.729Z,2.17
2023-04-05T07:08:39.618Z,2.37
2023-04-05T07:11:06.883Z,2.48
2023-04-05T07:13:34.786Z,2.49
2023-04-05T07:16:03.201Z,2.63
2023-04-05T07:18:30.301Z,2.75
2023-04-05T07:21:03.710Z,2.79
2023-04-05T07:23:31.130Z,2.86
2023-04-05T07:26:05.786Z,2.95
2023-04-05T07:28:35.278Z,3.07
2023-04-05T07:31:03.883Z,3.20
2023-04-05T07:33:31.152Z,3.38
2023-04-05T07:35:58.569Z,3.46
2023-04-05T07:38:27.606Z,3.55
2023-04-05T07:40:54.378Z,3.73
2023-04-05T07:43:21.459Z,3.93
2023-04-05T07:45:48.364Z,4.03
2023-04-05T07:48:15.462Z,4.15
2023-04-05T07:50:47.855Z,4.40
2023-04-05T07:53:15.370Z,4.76
2023-04-05T07:55:42.260Z,4.97
2023-04-05T07:58:10.334Z,5.13
2023-04-05T08:00:37.855Z,5.43
2023-04-05T08:03:05.046Z,5.70
2023-04-05T08:05:32.001Z,5.92
2023-04-05T08:07:58.905Z,6.15
2023-04-05T08:10:26.162Z,6.32
2023-04-05T08:12:53.558Z,6.47
2023-04-05T08:15:20.364Z,6.70
2023-04-05T08:17:47.389Z,6.96
2023-04-05T08:20:14.219Z,7.09
2023-04-05T08:22:41.430Z,7.13
2023-04-05T08:25:09.221Z,7.30
2023-04-05T08:27:36.074Z,7.57
2023-04-05T08:30:03.077Z,7.87
2023-04-05T08:32:30.051Z,8.10
2023-04-05T08:34:56.878Z,8.20
2023-04-05T08:37:23.777Z,8.42
2023-04-05T08:39:50.910Z,8.53
2023-04-05T08:42:29.324Z,8.66
2023-04-05T08:44:59.604Z,8.80
2023-04-05T08:47:27.908Z,8.94
2023-04-05T08:49:55.143Z,9.06
2023-04-05T08:52:22.170Z,9.21
2023-04-05T08:54:50.382Z,9.46
2023-04-05T08:57:22.046Z,9.57
2023-04-05T08:59:50.749Z,9.74
2023-04-05T09:02:24.726Z,9.76
2023-04-05T09:04:52.598Z,10.00
2023-04-05T09:07:20.717Z,10.19
2023-04-05T09:09:53.296Z,10.49
2023-04-05T09:12:24.397Z,10.62
2023-04-05T09:14:52.560Z,10.74
2023-04-05T09:17:19.718Z,10.71
2023-04-05T09:19:46.512Z,10.71
2023-04-05T09:22:13.965Z,10.56
2023-04-05T09:24:44.089Z,10.64
2023-04-05T09:27:20.495Z,10.80
2023-04-05T09:29:50.360Z,10.62
2023-04-05T09:32:20.661Z,10.71
2023-04-05T09:34:48.025Z,10.89
2023-04-05T09:37:20.139Z,10.87
2023-04-05T09:39:51.494Z,11.02
2023-04-05T09:42:22.934Z,10.90
2023-04-05T09:44:53.589Z,11.10
2023-04-05T09:47:34.277Z,11.30
2023-04-05T09:50:06.233Z,11.68
2023-04-05T09:52:33.911Z,11.63
2023-04-05T09:55:04.404Z,11.77
2023-04-05T09:57:36.706Z,12.08
2023-04-05T10:00:06.001Z,12.40
2023-04-05T10:02:40.462Z,12.08
2023-04-05T10:05:13.832Z,12.19
2023-04-05T10:07:44.545Z,12.47
2023-04-05T10:10:16.032Z,12.31
2023-04-05T10:12:43.105Z,12.38
2023-04-05T10:15:13.967Z,11.91
2023-04-05T10:17:53.299Z,12.14
2023-04-05T10:20:24.059Z,12.59
2023-04-05T10:23:11.620Z,12.78
2023-04-05T10:26:04.132Z,12.89
2023-04-05T10:28:45.999Z,12.82
2023-04-05T10:31:37.837Z,13.07
2023-04-05T10:34:09.018Z,13.17
2023-04-05T10:36:51.047Z,13.42
2023-04-05T10:39:27.577Z,13.27
2023-04-05T10:42:01.343Z,13.39
2023-04-05T10:44:34.007Z,13.80
2023-04-05T10:47:03.951Z,13.95
2023-04-05T10:49:42.670Z,14.33
2023-04-05T10:52:10.027Z,14.28
2023-04-05T10:54:37.312Z,14.31
2023-04-05T10:57:09.762Z,14.62
2023-04-05T10:59:45.074Z,14.81
2023-04-05T11:02:14.090Z,14.83
2023-04-05T11:04:42.355Z,14.61
2023-04-05T11:07:19.580Z,14.79
2023-04-05T11:10:01.447Z,14.67
2023-04-05T11:12:46.601Z,14.90
2023-04-05T11:15:31.945Z,14.73
2023-04-05T11:18:22.551Z,15.16
2023-04-05T11:21:07.213Z,15.39
2023-04-05T11:24:06.975Z,15.46
2023-04-05T11:26:56.051Z,15.86
2023-04-05T11:29:51.468Z,16.28
2023-04-05T11:32:18.455Z,16.66
2023-04-05T11:34:59.547Z,17.02
2023-04-05T11:38:00.540Z,16.71
2023-04-05T11:40:36.678Z,17.28
2023-04-05T11:43:10.205Z,18.12
2023-04-05T11:45:45.803Z,18.41
2023-04-05T11:48:15.280Z,18.37
2023-04-05T11:50:42.726Z,17.80
2023-04-05T11:53:18.139Z,17.74
2023-04-05T11:55:51.022Z,17.72
2023-04-05T11:58:24.007Z,17.96
2023-04-05T12:01:07.166Z,18.30
2023-04-05T12:03:35.769Z,18.59
2023-04-05T12:06:06.227Z,18.98
2023-04-05T12:08:53.350Z,19.04
2023-04-05T12:11:29.492Z,18.79
2023-04-05T12:13:58.896Z,18.91
2023-04-05T12:16:25.989Z,19.20
2023-04-05T12:18:59.342Z,19.39
2023-04-05T12:21:28.355Z,19.60
2023-04-05T12:23:55.746Z,19.39
2023-04-05T12:26:23.319Z,19.76
2023-04-05T12:28:54.244Z,19.67
2023-04-05T12:31:42.184Z,19.48
2023-04-05T12:34:10.990Z,19.70
2023-04-05T12:36:43.338Z,19.40
2023-04-05T12:39:10.817Z,19.33
2023-04-05T12:41:38.057Z,19.51
2023-04-05T12:44:33.924Z,19.70
2023-04-05T12:47:02.811Z,19.95
2023-04-05T12:49:37.191Z,20.31
2023-04-05T12:52:04.353Z,20.56
2023-04-05T12:54:32.417Z,20.06
2023-04-05T12:57:04.354Z,20.72
2023-04-05T12:59:31.360Z,20.86
2023-04-05T13:01:58.339Z,20.16
2023-04-05T13:04:26.796Z,20.09
2023-04-05T13:06:54.972Z,20.28
2023-04-05T13:09:21.835Z,20.36
2023-04-05T13:11:49.271Z,19.98
2023-04-05T13:14:16.225Z,20.58
2023-04-05T13:16:43.141Z,21.06
2023-04-05T13:19:10.094Z,20.40
2023-04-05T13:21:36.886Z,19.86
2023-04-05T13:24:03.881Z,19.70
2023-04-05T13:26:30.773Z,20.08
2023-04-05T13:28:57.642Z,20.31
2023-04-05T13:31:24.543Z,20.41
2023-04-05T13:33:51.912Z,20.56
2023-04-05T13:36:18.726Z,20.30
2023-04-05T13:38:45.669Z,20.38
2023-04-05T13:41:12.550Z,20.02
2023-04-05T13:43:39.392Z,20.12
2023-04-05T13:46:06.234Z,20.21
2023-04-05T13:48:33.076Z,20.35
2023-04-05T13:50:59.851Z,20.25
2023-04-05T13:53:28.591Z,19.42
2023-04-05T13:55:55.733Z,19.37
2023-04-05T13:58:22.605Z,19.29
2023-04-05T14:00:49.445Z,19.24
2023-04-05T14:03:16.415Z,19.40
2023-04-05T14:05:43.188Z,19.32
2023-04-05T14:08:10.027Z,19.15
2023-04-05T14:10:36.992Z,18.90
2023-04-05T14:13:03.797Z,18.98
2023-04-05T14:15:31.050Z,19.07
2023-04-05T14:17:57.935Z,18.70
2023-04-05T14:20:24.912Z,18.64
2023-04-05T14:22:51.838Z,18.26
2023-04-05T14:25:18.917Z,18.16
2023-04-05T14:27:45.997Z,18.23
2023-04-05T14:30:13.714Z,18.39
2023-04-05T14:32:40.798Z,17.77
2023-04-05T14:35:08.940Z,17.82
2023-04-05T14:37:35.946Z,17.97
2023-04-05T14:40:02.966Z,17.69
2023-04-05T14:42:45.188Z,17.65
2023-04-05T14:45:15.319Z,17.75
2023-04-05T14:47:42.213Z,17.66
2023-04-05T14:50:09.827Z,17.37
2023-04-05T14:52:37.293Z,16.95
2023-04-05T14:55:04.506Z,17.01
2023-04-05T14:57:31.392Z,17.07
2023-04-05T14:59:58.477Z,16.52
2023-04-05T15:02:25.792Z,16.35
2023-04-05T15:04:52.677Z,15.75
2023-04-05T15:07:19.733Z,15.15
2023-04-05T15:09:46.706Z,14.65
2023-04-05T15:12:13.552Z,14.25
2023-04-05T15:14:40.479Z,14.05
2023-04-05T15:17:07.451Z,13.81
2023-04-05T15:19:35.405Z,13.69
2023-04-05T15:22:02.339Z,13.44
2023-04-05T15:24:29.295Z,13.46
2023-04-05T15:27:02.584Z,13.48
2023-04-05T15:29:30.279Z,13.31
2023-04-05T15:31:58.155Z,13.18
2023-04-05T15:34:26.217Z,13.17
2023-04-05T15:36:54.184Z,13.12
2023-04-05T15:39:21.624Z,13.02
2023-04-05T15:41:48.743Z,12.85
2023-04-05T15:44:16.074Z,12.73
2023-04-05T15:46:43.316Z,12.53
2023-04-05T15:49:13.349Z,12.52
2023-04-05T15:51:41.653Z,12.60
2023-04-05T15:54:08.855Z,12.38
2023-04-05T15:56:37.738Z,12.31
2023-04-05T15:59:05.965Z,12.35
2023-04-05T16:01:32.908Z,12.35
2023-04-05T16:03:59.924Z,12.31
2023-04-05T16:06:29.390Z,12.40
2023-04-05T16:08:56.298Z,12.37
2023-04-05T16:11:27.299Z,12.24
2023-04-05T16:13:54.396Z,12.09
2023-04-05T16:16:32.590Z,11.97
2023-04-05T16:19:08.949Z,11.89
2023-04-05T16:21:36.146Z,11.89
2023-04-05T16:24:06.718Z,11.78
2023-04-05T16:26:34.429Z,11.75
2023-04-05T16:29:01.702Z,11.71
2023-04-05T16:31:29.024Z,11.75
2023-04-05T16:33:56.631Z,11.71
2023-04-05T16:36:23.499Z,11.74
2023-04-05T16:38:50.321Z,11.62
2023-04-05T16:41:17.283Z,11.45
2023-04-05T16:43:44.289Z,11.33
2023-04-05T16:46:11.153Z,11.27
2023-04-05T16:48:38.160Z,11.33
2023-04-05T16:51:07.139Z,11.38
2023-04-05T16:53:34.287Z,11.48
2023-04-05T16:56:01.131Z,11.47
2023-04-05T16:58:28.130Z,11.46
2023-04-05T17:00:58.819Z,11.29
2023-04-05T17:03:26.306Z,11.18
2023-04-05T17:05:53.366Z,11.17
2023-04-05T17:08:20.259Z,11.18
2023-04-05T17:10:47.577Z,11.00
2023-04-05T17:13:17.968Z,10.92
2023-04-05T17:15:44.888Z,11.00
2023-04-05T17:18:12.262Z,10.92
2023-04-05T17:20:39.270Z,10.88
2023-04-05T17:23:06.153Z,10.83
2023-04-05T17:25:33.056Z,10.81
2023-04-05T17:28:00.119Z,10.76
2023-04-05T17:30:27.099Z,10.68
2023-04-05T17:32:54.025Z,10.69
2023-04-05T17:35:20.976Z,10.63
2023-04-05T17:37:47.995Z,10.58
2023-04-05T17:40:16.200Z,10.55
2023-04-05T17:42:43.138Z,10.46
2023-04-05T17:45:11.361Z,10.47
2023-04-05T17:47:38.494Z,10.44
2023-04-05T17:50:06.149Z,10.44
2023-04-05T17:52:33.136Z,10.36
2023-04-05T17:55:00.193Z,10.30
2023-04-05T17:57:27.173Z,10.23
2023-04-05T17:59:54.044Z,10.20
2023-04-05T18:02:21.101Z,10.19
2023-04-05T18:04:48.026Z,10.16
2023-04-05T18:07:14.901Z,10.13
2023-04-05T18:09:42.364Z,10.16
2023-04-05T18:12:12.621Z,10.02
2023-04-05T18:14:39.457Z,9.80
2023-04-05T18:17:09.432Z,9.59
2023-04-05T18:19:36.700Z,9.35
2023-04-05T18:22:03.866Z,9.12
2023-04-05T18:24:33.103Z,8.89
2023-04-05T18:26:59.991Z,8.62
2023-04-05T18:29:30.494Z,8.43
2023-04-05T18:31:57.500Z,8.51
2023-04-05T18:34:24.510Z,8.38
2023-04-05T18:36:54.174Z,8.19
2023-04-05T18:39:22.192Z,8.10
2023-04-05T18:41:49.002Z,7.96
2023-04-05T18:44:16.434Z,8.02
2023-04-05T18:46:44.129Z,7.92
2023-04-05T18:49:11.431Z,7.67
2023-04-05T18:51:38.330Z,7.58
2023-04-05T18:54:05.579Z,7.52
2023-04-05T18:56:32.807Z,7.37
2023-04-05T18:58:59.904Z,7.41
2023-04-05T19:01:27.188Z,7.35
2023-04-05T19:03:54.877Z,7.38
2023-04-05T19:06:21.752Z,7.50
2023-04-05T19:08:48.573Z,7.47
2023-04-05T19:11:15.546Z,7.37
2023-04-05T19:13:42.563Z,7.22
2023-04-05T19:16:09.600Z,7.06
2023-04-05T19:18:36.719Z,7.03
2023-04-05T19:21:04.104Z,6.94
2023-04-05T19:23:31.371Z,6.82
2023-04-05T19:25:58.630Z,6.61
2023-04-05T19:28:27.189Z,6.50
2023-04-05T19:30:54.909Z,6.42
2023-04-05T19:33:22.373Z,6.44
2023-04-05T19:35:49.597Z,6.39
2023-04-05T19:38:16.775Z,6.35
2023-04-05T19:40:43.895Z,6.26
2023-04-05T19:43:12.490Z,6.29
2023-04-05T19:45:39.582Z,6.51
2023-04-05T19:48:38.218Z,6.24
2023-04-05T19:51:07.702Z,6.14
2023-04-05T19:53:50.146Z,5.90
2023-04-05T19:56:31.064Z,5.91
2023-04-05T19:59:17.574Z,5.91
2023-04-05T20:01:47.303Z,5.87
2023-04-05T20:04:22.378Z,6.04
2023-04-05T20:06:54.661Z,5.90
2023-04-05T20:09:29.288Z,5.76
2023-04-05T20:12:03.610Z,5.76
2023-04-05T20:14:44.014Z,5.67
2023-04-05T20:17:13.466Z,5.59
2023-04-05T20:20:02.959Z,5.47
2023-04-05T20:22:32.820Z,5.27
2023-04-05T20:25:01.601Z,5.10
2023-04-05T20:27:28.565Z,5.03
2023-04-05T20:29:56.676Z,5.08
2023-04-05T20:32:27.906Z,5.22
2023-04-05T20:34:55.113Z,5.29
2023-04-05T20:37:22.093Z,5.31
2023-04-05T20:39:50.410Z,5.14
2023-04-05T20:42:17.318Z,5.13
2023-04-05T20:44:48.016Z,4.95
2023-04-05T20:47:15.005Z,4.70
2023-04-05T20:49:42.589Z,4.58
2023-04-05T20:52:11.029Z,4.74
2023-04-05T20:54:37.957Z,4.94
2023-04-05T20:57:04.857Z,4.96
2023-04-05T20:59:31.792Z,4.91
2023-04-05T21:01:58.785Z,4.85
2023-04-05T21:04:27.432Z,4.83
2023-04-05T21:06:56.452Z,4.97
2023-04-05T21:09:23.413Z,4.89
2023-04-05T21:11:50.267Z,4.74
2023-04-05T21:14:17.071Z,4.77
2023-04-05T21:16:44.026Z,4.73
2023-04-05T21:19:11.158Z,4.71
2023-04-05T21:21:39.589Z,4.62
2023-04-05T21:24:06.658Z,4.72
2023-04-05T21:26:33.447Z,4.62
2023-04-05T21:29:00.288Z,4.57
2023-04-05T21:31:27.314Z,4.57
2023-04-05T21:33:54.218Z,4.53
2023-04-05T21:36:21.068Z,4.32
2023-04-05T21:38:47.913Z,4.26
2023-04-05T21:41:14.825Z,4.37
2023-04-05T21:43:41.708Z,4.32
2023-04-05T21:46:08.861Z,4.13
2023-04-05T21:48:36.023Z,4.09
2023-04-05T21:51:02.959Z,4.18
2023-04-05T21:53:30.522Z,4.21
2023-04-05T21:56:00.780Z,4.12
2023-04-05T21:58:27.766Z,4.22
2023-04-05T22:00:54.772Z,4.15
2023-04-05T22:03:21.830Z,4.15
2023-04-05T22:05:49.230Z,4.20
2023-04-05T22:08:16.155Z,4.16
2023-04-05T22:10:43.687Z,4.15
2023-04-05T22:13:10.608Z,4.14
2023-04-05T22:15:37.449Z,4.12
2023-04-05T22:18:05.597Z,4.03
2023-04-05T22:20:32.554Z,4.02
2023-04-05T22:23:01.067Z,3.92
2023-04-05T22:25:28.021Z,3.68
2023-04-05T22:27:59.734Z,3.51
2023-04-05T22:30:28.823Z,3.45
2023-04-05T22:32:56.297Z,3.59
2023-04-05T22:35:23.358Z,3.47
2023-04-05T22:37:50.945Z,3.46
2023-04-05T22:40:17.813Z,3.46
2023-04-05T22:42:46.395Z,3.56
2023-04-05T22:45:13.274Z,3.34
2023-04-05T22:47:40.249Z,3.33
2023-04-05T22:50:07.905Z,3.47
2023-04-05T22:52:34.799Z,3.46
2023-04-05T22:55:02.748Z,3.51
2023-04-05T22:57:31.070Z,3.49
2023-04-05T22:59:58.088Z,3.35
2023-04-05T23:02:25.560Z,3.34
2023-04-05T23:04:52.449Z,3.24
2023-04-05T23:07:19.320Z,3.34
2023-04-05T23:09:46.227Z,3.41
2023-04-05T23:12:13.643Z,3.50
2023-04-05T23:14:40.565Z,3.45
2023-04-05T23:17:07.437Z,3.41
2023-04-05T23:19:34.701Z,3.15
2023-04-05T23:22:01.569Z,3.01
2023-04-05T23:24:28.574Z,3.06
2023-04-05T23:26:55.542Z,3.06
2023-04-05T23:29:22.440Z,3.27
2023-04-05T23:31:49.377Z,3.31
2023-04-05T23:34:16.334Z,3.33
2023-04-05T23:36:43.246Z,3.39
2023-04-05T23:39:10.728Z,3.32
2023-04-05T23:41:37.605Z,3.26
2023-04-05T23:44:04.491Z,3.12
2023-04-05T23:46:31.531Z,3.05
2023-04-05T23:48:58.495Z,3.16
2023-04-05T23:51:26.557Z,3.15
2023-04-05T23:53:54.130Z,3.14
2023-04-05T23:56:21.151Z,2.97
2023-04-05T23:58:48.257Z,2.84
